createdAt,value
2018-11-23T16:41:53.027Z,37.17
2018-11-23T16:42:08.899Z,34.639
2018-11-23T16:42:24.799Z,33.838
2018-11-23T16:42:40.791Z,33.789
2018-11-23T16:42:56.655Z,33.858
2018-11-23T16:43:12.551Z,33.852
2018-11-23T16:43:28.405Z,34.178
2018-11-23T16:43:44.280Z,34.38
2018-11-23T16:44:00.150Z,34.311
2018-11-23T16:44:16.017Z,34.135
2018-11-23T16:44:31.879Z,34.38
2018-11-23T16:44:47.821Z,34.195
2018-11-23T16:45:03.958Z,34.233
2018-11-23T16:45:20.248Z,34.206
2018-11-23T16:45:36.636Z,34.186
2018-11-23T16:45:52.942Z,34.131
2018-11-23T16:46:09.213Z,34.181
2018-11-23T16:46:25.534Z,34.192
2018-11-23T16:46:41.800Z,34.314
2018-11-23T16:46:58.098Z,34.14
2018-11-23T16:47:14.402Z,34.149
2018-11-23T16:47:30.655Z,34.314
2018-11-23T16:47:47.000Z,34.137
2018-11-23T16:48:03.225Z,36.113
2018-11-23T16:48:19.818Z,34.2
2018-11-23T16:48:36.204Z,34.126
2018-11-23T16:48:52.642Z,34.154
2018-11-23T16:49:08.898Z,34.167
2018-11-23T16:49:25.264Z,34.224
2018-11-23T16:49:41.508Z,34.291
2018-11-23T16:49:57.808Z,34.05
2018-11-23T16:50:14.121Z,34.167
2018-11-23T16:50:30.415Z,34.064
2018-11-23T16:50:46.858Z,34.375
2018-11-23T16:51:03.094Z,33.986
2018-11-23T16:51:19.375Z,33.975
2018-11-23T16:51:35.731Z,34.155
2018-11-23T16:51:51.968Z,34.082
2018-11-23T16:52:08.233Z,34.068
2018-11-23T16:52:24.529Z,34.021
2018-11-23T16:52:40.809Z,34.018
2018-11-23T16:52:57.078Z,34.058
2018-11-23T16:53:13.389Z,34.058
2018-11-23T16:53:29.956Z,33.986
2018-11-23T16:53:46.248Z,33.885
2018-11-23T16:54:02.513Z,33.833
2018-11-23T16:54:18.799Z,33.821
2018-11-23T16:54:35.314Z,34.261
2018-11-23T16:54:51.503Z,33.829
2018-11-23T16:55:08.047Z,33.803
2018-11-23T16:55:24.291Z,33.794
2018-11-23T16:55:40.535Z,35.089
2018-11-23T16:55:56.853Z,33.904
2018-11-23T16:56:13.177Z,33.897
2018-11-23T16:56:29.414Z,33.817
2018-11-23T16:56:45.797Z,33.902
2018-11-23T16:57:02.002Z,33.966
2018-11-23T16:57:18.269Z,33.852
2018-11-23T16:57:34.592Z,34.554
2018-11-23T16:57:50.847Z,33.821
2018-11-23T16:58:07.136Z,33.858
2018-11-23T16:58:23.454Z,34.103
2018-11-23T16:58:40.013Z,33.849
2018-11-23T16:58:56.300Z,33.897
2018-11-23T16:59:12.613Z,34.068
2018-11-23T16:59:28.867Z,34.082
2018-11-23T16:59:45.175Z,34.209
2018-11-23T17:00:01.489Z,34.174
2018-11-23T17:00:17.793Z,34.096
2018-11-23T17:00:34.120Z,34.186
2018-11-23T17:00:50.351Z,34.773
2018-11-23T17:01:06.648Z,34.988
2018-11-23T17:01:22.947Z,36.238
2018-11-23T17:01:39.196Z,34.213
2018-11-23T17:01:55.495Z,34.004
2018-11-23T17:02:11.754Z,33.83
2018-11-23T17:02:28.027Z,33.803
2018-11-23T17:02:44.301Z,33.847
2018-11-23T17:03:00.554Z,33.771
2018-11-23T17:03:16.832Z,33.936
2018-11-23T17:03:33.164Z,34.073
2018-11-23T17:03:49.666Z,33.701
2018-11-23T17:04:05.969Z,33.89
2018-11-23T17:04:22.251Z,33.638
2018-11-23T17:04:38.859Z,33.826
2018-11-23T17:04:55.010Z,33.661
2018-11-23T17:05:11.425Z,33.884
2018-11-23T17:05:27.793Z,34.174
2018-11-23T17:05:44.171Z,33.615
2018-11-23T17:06:00.430Z,34.36
2018-11-23T17:06:16.787Z,33.711
2018-11-23T17:06:33.209Z,36.179
2018-11-23T17:06:49.554Z,33.92
2018-11-23T17:07:30.490Z,33.565
2018-11-23T17:07:46.480Z,33.623
2018-11-23T17:08:02.554Z,33.638
2018-11-23T17:08:18.893Z,33.524
2018-11-23T17:08:40.600Z,33.377
2018-11-23T17:08:57.131Z,33.565
2018-11-23T17:09:13.486Z,33.501
2018-11-23T17:09:29.752Z,33.733
2018-11-23T17:09:46.051Z,33.733
2018-11-23T17:10:02.422Z,34.59
2018-11-23T17:10:19.005Z,34.314
2018-11-23T17:10:35.250Z,33.908
2018-11-23T17:10:51.596Z,33.844
2018-11-23T17:11:07.949Z,33.806
2018-11-23T17:11:24.211Z,34.048
2018-11-23T17:11:40.440Z,34.021
2018-11-23T17:11:56.774Z,33.908
2018-11-23T17:12:13.078Z,33.746
2018-11-23T17:12:29.389Z,33.719
2018-11-23T17:12:45.647Z,33.783
2018-11-23T17:13:01.930Z,33.519
2018-11-23T17:13:18.274Z,33.62
2018-11-23T17:13:34.516Z,33.517
2018-11-23T17:13:50.827Z,33.501
2018-11-23T17:14:07.353Z,33.559
2018-11-23T17:14:23.793Z,33.55
2018-11-23T17:14:40.078Z,33.536
2018-11-23T17:14:56.335Z,33.568
2018-11-23T17:15:12.701Z,33.588
2018-11-23T17:15:28.930Z,33.513
2018-11-23T17:15:45.241Z,33.559
2018-11-23T17:16:01.582Z,33.482
2018-11-23T17:16:17.827Z,33.545
2018-11-23T17:16:34.177Z,33.499
2018-11-23T17:16:50.479Z,33.405
2018-11-23T17:17:06.720Z,33.467
2018-11-23T17:17:22.986Z,33.54
2018-11-23T17:17:39.680Z,33.614
2018-11-23T17:17:55.957Z,33.537
2018-11-23T17:18:12.309Z,33.54
2018-11-23T17:18:28.600Z,33.492
2018-11-23T17:18:44.853Z,33.467
2018-11-23T17:19:01.193Z,33.38
2018-11-23T17:19:17.749Z,33.307
2018-11-23T17:19:34.057Z,33.334
2018-11-23T17:19:50.305Z,33.327
2018-11-23T17:20:06.589Z,33.302
2018-11-23T17:20:22.879Z,33.284
2018-11-23T17:20:39.162Z,33.302
2018-11-23T17:20:55.401Z,33.243
2018-11-23T17:21:11.726Z,33.304
2018-11-23T17:21:27.965Z,33.304
2018-11-23T17:21:44.245Z,33.275
2018-11-23T17:22:00.586Z,33.185
2018-11-23T17:22:16.866Z,33.069
2018-11-23T17:22:33.171Z,33.112
2018-11-23T17:22:50.769Z,33.166
2018-11-23T17:23:06.998Z,33.116
2018-11-23T17:23:23.312Z,33.263
2018-11-23T17:23:39.527Z,33.208
2018-11-23T17:23:55.870Z,33.166
2018-11-23T17:24:12.173Z,33.211
2018-11-23T17:24:28.709Z,33.166
2018-11-23T17:24:44.963Z,33.17
2018-11-23T17:25:01.341Z,33.217
2018-11-23T17:25:17.748Z,33.115
2018-11-23T17:25:34.298Z,33.07
2018-11-23T17:25:50.543Z,33.087
2018-11-23T17:26:06.780Z,33.102
2018-11-23T17:26:23.126Z,33.116
2018-11-23T17:26:39.410Z,33.144
2018-11-23T17:26:55.648Z,33.188
2018-11-23T17:27:11.956Z,33.055
2018-11-23T17:27:28.209Z,33.199
2018-11-23T17:27:44.496Z,33.13
2018-11-23T17:28:00.728Z,33.02
2018-11-23T17:28:17.022Z,33.055
2018-11-23T17:28:33.319Z,33.061
2018-11-23T17:28:49.626Z,33.047
2018-11-23T17:29:05.873Z,33.009
2018-11-23T17:29:23.876Z,32.977
2018-11-23T17:29:40.491Z,32.936
2018-11-23T17:29:56.679Z,33.009
2018-11-23T17:30:13.059Z,33.069
2018-11-23T17:30:29.361Z,32.947
2018-11-23T17:30:45.763Z,32.977
2018-11-23T17:31:01.983Z,32.945
2018-11-23T17:31:18.247Z,32.973
2018-11-23T17:31:34.612Z,32.988
2018-11-23T17:31:50.844Z,32.961
2018-11-23T17:32:07.108Z,32.988
2018-11-23T17:32:23.455Z,33.032
2018-11-23T17:32:39.675Z,33.073
2018-11-23T17:32:55.985Z,33.011
2018-11-23T17:33:12.374Z,32.973
2018-11-23T17:33:28.547Z,32.983
2018-11-23T17:33:44.939Z,33.014
2018-11-23T17:34:01.230Z,33.025
2018-11-23T17:34:17.543Z,33.025
2018-11-23T17:34:33.869Z,33.07
2018-11-23T17:34:50.401Z,33.084
2018-11-23T17:35:06.704Z,33.115
2018-11-23T17:35:23.037Z,33.037
2018-11-23T17:35:39.438Z,33.023
2018-11-23T17:35:55.699Z,33.02
2018-11-23T17:36:12.021Z,33.075
2018-11-23T17:36:28.419Z,33.066
2018-11-23T17:36:44.719Z,32.964
2018-11-23T17:37:01.027Z,32.974
2018-11-23T17:37:17.419Z,32.979
2018-11-23T17:37:33.706Z,33.034
2018-11-23T17:37:50.020Z,32.961
2018-11-23T17:38:06.291Z,32.945
2018-11-23T17:38:22.555Z,33.006
2018-11-23T17:38:48.482Z,33.06
2018-11-23T17:39:03.468Z,33.038
2018-11-23T17:39:19.380Z,33.206
2018-11-23T17:39:35.269Z,33.229
2018-11-23T17:39:51.459Z,33.112
2018-11-23T17:40:07.391Z,33.134
2018-11-23T17:40:23.385Z,33.376
2018-11-23T17:40:39.576Z,33.316
2018-11-23T17:40:55.467Z,33.389
2018-11-23T17:41:11.349Z,33.408
2018-11-23T17:41:27.280Z,33.473
2018-11-23T17:41:43.165Z,33.394
2018-11-23T17:41:59.043Z,33.234
2018-11-23T17:42:14.939Z,33.463
2018-11-23T17:42:30.823Z,33.322
2018-11-23T17:42:46.704Z,33.078
2018-11-23T17:43:02.577Z,33.051
2018-11-23T17:43:18.450Z,33.02
2018-11-23T17:43:34.339Z,33
2018-11-23T17:43:50.222Z,33.142
2018-11-23T17:44:06.113Z,33.24
2018-11-23T17:44:21.998Z,33.24
2018-11-23T17:44:37.886Z,33.321
2018-11-23T17:44:54.025Z,33.426
